Time;durP1;ratioP1;P1;durP2;ratioP2;P2;SDS_P1;SDS_P2;PMS_P1;PMS_P2;Temp;Humidity;BMP_temperature;BMP_pressure;BME280_temperature;BME280_humidity;BME280_pressure;Samples;Min_cycle;Max_cycle;Signal;HPM_P1;HPM_P2
2022/10/03 00:02:54;;;;;;;22.83;10.53;;;;;9.00;102097.00;;;;13015200;22;20277;-75
2022/10/03 00:08:31;;;;;;;25.40;10.70;;;;;8.90;102091.00;;;;13087917;22;20159;-74
2022/10/03 00:13:42;;;;;;;21.67;9.63;;;;;8.80;102102.00;;;;13062335;22;20164;-74
2022/10/03 00:19:10;;;;;;;24.13;9.47;;;;;8.70;102100.00;;;;13035458;22;20489;-74
2022/10/03 00:24:54;;;;;;;22.10;9.97;;;;;8.60;102091.00;;;;13040282;22;20171;-74
2022/10/03 00:30:21;;;;;;;22.30;9.40;;;;;8.60;102085.00;;;;13040540;22;20179;-74
2022/10/03 00:36:00;;;;;;;23.43;9.60;;;;;8.50;102093.00;;;;13062170;22;20159;-74
2022/10/03 00:41:39;;;;;;;18.93;9.83;;;;;8.40;102091.00;;;;13087184;22;20187;-74
2022/10/03 00:46:58;;;;;;;21.23;10.37;;;;;8.50;102101.00;;;;13062266;22;20164;-74
2022/10/03 00:52:16;;;;;;;28.90;12.13;;;;;8.50;102115.00;;;;13040149;22;20171;-74
2022/10/03 00:57:54;;;;;;;23.33;11.13;;;;;8.50;102119.00;;;;13060728;22;20164;-74
2022/10/03 01:03:07;;;;;;;25.37;10.57;;;;;8.40;102119.00;;;;13038372;22;20183;-74
2022/10/03 01:08:36;;;;;;;23.20;9.83;;;;;8.30;102129.00;;;;13039872;22;20176;-74
2022/10/03 01:13:50;;;;;;;22.63;10.60;;;;;8.30;102126.00;;;;13038554;22;20221;-74
2022/10/03 01:19:12;;;;;;;19.63;9.00;;;;;8.30;102140.00;;;;13040394;22;20245;-74
2022/10/03 01:24:37;;;;;;;23.77;10.53;;;;;8.20;102122.00;;;;13088624;22;20599;-74
2022/10/03 01:35:29;;;;;;;21.00;10.37;;;;;7.90;102119.00;;;;13060391;22;20166;-74
2022/10/03 01:40:36;;;;;;;18.77;9.03;;;;;7.90;102129.00;;;;13064534;22;20203;-74
2022/10/03 01:46:03;;;;;;;20.70;9.47;;;;;7.80;102118.00;;;;12989265;22;20179;-74
2022/10/03 01:51:15;;;;;;;22.50;9.60;;;;;7.80;102130.00;;;;12988001;22;20180;-74
2022/10/03 01:56:36;;;;;;;23.27;10.27;;;;;7.80;102135.00;;;;13060576;22;20187;-74
2022/10/03 02:01:49;;;;;;;17.93;9.67;;;;;7.80;102140.00;;;;13060013;22;20939;-74
2022/10/03 02:07:19;;;;;;;17.60;9.27;;;;;7.80;102143.00;;;;13063952;22;20199;-74
2022/10/03 02:12:54;;;;;;;19.27;9.77;;;;;7.80;102134.00;;;;13038123;22;20202;-74
2022/10/03 02:18:14;;;;;;;20.20;9.30;;;;;7.80;102129.00;;;;13085971;22;20164;-74
2022/10/03 02:23:31;;;;;;;25.33;10.70;;;;;7.80;102133.00;;;;13040395;22;20176;-74
2022/10/03 02:28:55;;;;;;;28.07;9.87;;;;;7.70;102121.00;;;;13062282;22;20584;-74
2022/10/03 02:34:28;;;;;;;18.90;9.93;;;;;7.70;102115.00;;;;13037238;22;20182;-74
2022/10/03 02:39:29;;;;;;;22.63;11.20;;;;;7.70;102111.00;;;;13041544;22;20192;-74
2022/10/03 02:44:42;;;;;;;27.40;11.47;;;;;7.70;102113.00;;;;13063385;22;20175;-74
2022/10/03 02:50:19;;;;;;;17.53;9.40;;;;;7.60;102120.00;;;;13063133;22;20163;-74
2022/10/03 02:55:49;;;;;;;25.80;10.70;;;;;7.50;102135.00;;;;13062790;22;20166;-74
2022/10/03 03:01:21;;;;;;;22.60;9.67;;;;;7.50;102134.00;;;;13088861;22;20190;-74
2022/10/03 03:06:53;;;;;;;23.67;10.00;;;;;7.50;102136.00;;;;13063920;22;20532;-74
2022/10/03 03:12:23;;;;;;;29.30;11.67;;;;;7.50;102131.00;;;;13013830;22;20191;-74
2022/10/03 03:17:42;;;;;;;19.77;10.23;;;;;7.50;102140.00;;;;13042482;22;20195;-74
2022/10/03 03:22:53;;;;;;;21.07;9.73;;;;;7.60;102133.00;;;;13087256;22;20785;-74
2022/10/03 03:28:10;;;;;;;19.67;10.17;;;;;7.60;102138.00;;;;13117775;22;20305;-74
2022/10/03 03:33:37;;;;;;;22.47;10.27;;;;;7.50;102140.00;;;;13114354;22;20242;-74
2022/10/03 03:39:04;;;;;;;22.20;11.40;;;;;7.50;102144.00;;;;13015265;22;20191;-74
2022/10/03 03:44:38;;;;;;;26.00;10.67;;;;;7.50;102153.00;;;;13041550;22;20177;-74
2022/10/03 03:50:06;;;;;;;19.83;9.80;;;;;7.40;102140.00;;;;13037525;22;20281;-74
2022/10/03 03:55:14;;;;;;;20.50;8.80;;;;;7.40;102138.00;;;;13062541;22;20163;-74
2022/10/03 04:00:20;;;;;;;26.47;8.73;;;;;7.30;102130.00;;;;13088102;22;20183;-74
2022/10/03 04:05:49;;;;;;;24.47;9.70;;;;;7.30;102132.00;;;;13087930;22;20161;-74
2022/10/03 04:10:59;;;;;;;21.30;9.43;;;;;7.20;102137.00;;;;13115394;22;20180;-74
2022/10/03 04:22:04;;;;;;;21.43;10.47;;;;;7.20;102141.00;;;;13065787;22;20195;-76
2022/10/03 04:27:44;;;;;;;25.23;9.40;;;;;7.20;102134.00;;;;13063422;22;20160;-76
2022/10/03 04:33:22;;;;;;;18.50;10.50;;;;;7.20;102147.00;;;;13044918;22;20175;-76
2022/10/03 04:38:43;;;;;;;21.90;9.37;;;;;7.20;102154.00;;;;13061915;22;20161;-74
2022/10/03 04:44:08;;;;;;;20.13;9.43;;;;;7.20;102159.00;;;;13062292;22;20160;-74
2022/10/03 04:49:22;;;;;;;20.50;9.50;;;;;7.10;102151.00;;;;13040383;22;20179;-76
2022/10/03 04:54:47;;;;;;;27.30;10.17;;;;;7.10;102151.00;;;;13038602;22;20531;-74
2022/10/03 05:00:24;;;;;;;16.00;9.57;;;;;7.10;102158.00;;;;13087553;22;20187;-74
2022/10/03 05:05:28;;;;;;;19.33;9.37;;;;;7.00;102161.00;;;;13014303;22;20179;-76
2022/10/03 05:10:56;;;;;;;28.03;10.30;;;;;7.00;102165.00;;;;13115542;22;20218;-76
2022/10/03 05:16:33;;;;;;;22.27;9.80;;;;;7.00;102156.00;;;;13039353;22;20777;-76
2022/10/03 05:21:47;;;;;;;28.53;10.07;;;;;7.00;102173.00;;;;12989378;22;20223;-76
2022/10/03 05:27:17;;;;;;;18.30;8.93;;;;;7.00;102162.00;;;;13062418;22;20232;-74
2022/10/03 05:32:29;;;;;;;22.90;10.10;;;;;6.90;102160.00;;;;13113262;22;20164;-76
2022/10/03 05:38:00;;;;;;;22.93;9.57;;;;;6.90;102165.00;;;;13014943;22;20183;-76
2022/10/03 05:43:35;;;;;;;19.20;9.70;;;;;6.90;102155.00;;;;13087031;22;20184;-74
2022/10/03 05:49:10;;;;;;;19.10;10.33;;;;;6.90;102181.00;;;;13050473;22;20636;-76
2022/10/03 05:54:41;;;;;;;30.87;10.93;;;;;7.00;102177.00;;;;13086171;22;20160;-74
2022/10/03 06:00:09;;;;;;;18.97;10.20;;;;;7.10;102181.00;;;;13086521;22;20188;-76
2022/10/03 06:05:37;;;;;;;20.73;9.90;;;;;7.20;102182.00;;;;13040825;22;20182;-75
2022/10/03 06:10:49;;;;;;;28.30;10.07;;;;;7.30;102191.00;;;;13065743;22;20315;-74
2022/10/03 06:16:24;;;;;;;23.57;10.67;;;;;7.40;102195.00;;;;13041543;22;20254;-74
2022/10/03 06:21:40;;;;;;;21.63;10.57;;;;;7.60;102186.00;;;;12990907;22;20203;-74
2022/10/03 06:27:19;;;;;;;27.20;10.93;;;;;7.70;102185.00;;;;13065411;22;20167;-76
2022/10/03 06:32:45;;;;;;;26.83;11.90;;;;;7.90;102191.00;;;;13067314;22;20180;-74
2022/10/03 06:38:28;;;;;;;21.60;11.87;;;;;8.20;102188.00;;;;13064192;22;20239;-74
2022/10/03 06:44:05;;;;;;;31.27;13.03;;;;;8.40;102197.00;;;;13088609;22;20278;-74
2022/10/03 06:49:33;;;;;;;32.33;13.60;;;;;8.70;102197.00;;;;13088001;22;20639;-74
2022/10/03 06:54:43;;;;;;;28.17;14.77;;;;;9.00;102199.00;;;;13037482;22;20166;-74
2022/10/03 06:59:51;;;;;;;29.13;15.13;;;;;9.30;102192.00;;;;13036876;22;20194;-74
2022/10/03 07:05:04;;;;;;;35.80;15.47;;;;;9.60;102196.00;;;;13089319;22;20287;-74
2022/10/03 07:10:31;;;;;;;37.03;16.23;;;;;10.00;102193.00;;;;13060986;22;20187;-74
2022/10/03 07:15:54;;;;;;;39.37;17.83;;;;;10.30;102196.00;;;;13015272;22;20266;-74
2022/10/03 07:22:00;;;;;;;41.30;18.43;;;;;10.60;102203.00;;;;13117356;22;20262;-74
2022/10/03 07:27:18;;;;;;;37.27;17.80;;;;;11.00;102206.00;;;;12992368;22;20180;-74
2022/10/03 07:32:53;;;;;;;32.10;16.07;;;;;11.20;102207.00;;;;13038611;22;20538;-74
2022/10/03 07:44:28;;;;;;;31.93;16.43;;;;;11.60;102229.00;;;;13042363;22;20175;-74
2022/10/03 07:49:53;;;;;;;31.60;16.23;;;;;11.90;102234.00;;;;13016725;22;20558;-74
2022/10/03 07:55:19;;;;;;;27.60;16.63;;;;;12.20;102242.00;;;;13042442;22;20174;-74
2022/10/03 08:00:24;;;;;;;29.63;15.13;;;;;12.50;102236.00;;;;13016041;22;20195;-74
2022/10/03 08:05:49;;;;;;;34.50;16.67;;;;;12.80;102255.00;;;;13089076;22;20171;-74
2022/10/03 08:11:13;;;;;;;30.77;17.80;;;;;13.10;102265.00;;;;13088592;22;20190;-74
2022/10/03 08:16:42;;;;;;;32.30;18.03;;;;;13.20;102258.00;;;;13089086;22;20166;-74
2022/10/03 08:21:52;;;;;;;32.73;18.77;;;;;13.60;102273.00;;;;13089602;22;20183;-75
2022/10/03 08:27:12;;;;;;;29.57;21.27;;;;;14.00;102266.00;;;;13117143;22;20838;-75
2022/10/03 08:32:34;;;;;;;30.65;18.95;;;;;14.50;102270.00;;;;13088135;22;20166;-76
2022/10/03 08:38:06;;;;;;;24.55;13.63;;;;;14.90;102272.00;;;;13087939;22;20166;-75
2022/10/03 08:43:50;;;;;;;24.38;12.85;;;;;15.30;102286.00;;;;13040733;22;20202;-76
2022/10/03 08:48:57;;;;;;;17.17;9.77;;;;;15.70;102272.00;;;;13085025;22;20288;-76
2022/10/03 08:54:23;;;;;;;16.65;8.95;;;;;16.20;102272.00;;;;13015079;22;20618;-76
2022/10/03 08:59:58;;;;;;;15.70;7.65;;;;;16.50;102271.00;;;;13085942;22;20186;-76
2022/10/03 09:05:18;;;;;;;20.38;7.45;;;;;16.80;102260.00;;;;13087642;22;20160;-76
2022/10/03 09:11:02;;;;;;;13.48;5.60;;;;;17.30;102253.00;;;;13061020;22;21061;-76
2022/10/03 09:16:47;;;;;;;15.43;5.32;;;;;17.40;102260.00;;;;13030178;22;20179;-76
2022/10/03 09:22:00;;;;;;;15.98;5.72;;;;;17.50;102260.00;;;;13014320;22;20878;-76
2022/10/03 09:27:30;;;;;;;14.55;5.85;;;;;17.80;102249.00;;;;13040009;22;20172;-76
2022/10/03 09:32:43;;;;;;;11.75;4.63;;;;;18.40;102256.00;;;;13065720;22;20179;-77
2022/10/03 09:37:51;;;;;;;17.60;4.80;;;;;18.70;102255.00;;;;13087847;22;20165;-76
2022/10/03 09:43:43;;;;;;;13.15;4.50;;;;;18.50;102257.00;;;;13040832;22;20199;-76
2022/10/03 09:49:02;;;;;;;11.23;4.10;;;;;18.50;102247.00;;;;13036096;22;20198;-76
2022/10/03 09:54:31;;;;;;;12.80;3.88;;;;;18.50;102254.00;;;;13042671;22;20216;-76
2022/10/03 10:00:10;;;;;;;14.05;2.90;;;;;18.60;102250.00;;;;13038212;22;20265;-76
2022/10/03 10:05:32;;;;;;;10.25;2.53;;;;;18.70;102252.00;;;;13065304;22;20341;-76
2022/10/03 10:11:07;;;;;;;9.50;3.17;;;;;18.90;102259.00;;;;13042630;22;20194;-76
2022/10/03 10:16:23;;;;;;;9.45;2.88;;;;;19.40;102260.00;;;;13088941;22;20681;-76
2022/10/03 10:21:49;;;;;;;12.02;3.50;;;;;19.10;102257.00;;;;13064156;22;20198;-76
2022/10/03 10:27:19;;;;;;;13.38;3.45;;;;;19.20;102256.00;;;;13088117;22;20166;-76
2022/10/03 10:33:15;;;;;;;11.00;3.85;;;;;20.20;102244.00;;;;13117074;22;20170;-76
2022/10/03 10:38:42;;;;;;;9.40;2.42;;;;;20.90;102253.00;;;;12958686;22;20171;-76
2022/10/03 10:44:03;;;;;;;11.68;3.17;;;;;21.80;102253.00;;;;13089860;22;20167;-76
2022/10/03 10:49:37;;;;;;;16.58;3.65;;;;;22.20;102258.00;;;;13060974;22;20484;-76
2022/10/03 10:55:19;;;;;;;12.70;2.97;;;;;22.40;102256.00;;;;13042378;22;20186;-76
2022/10/03 11:00:51;;;;;;;9.50;2.65;;;;;22.40;102259.00;;;;13063474;22;20183;-77
2022/10/03 11:06:30;;;;;;;11.45;2.58;;;;;21.50;102258.00;;;;13041582;22;20589;-76
2022/10/03 11:12:10;;;;;;;7.07;2.42;;;;;22.00;102259.00;;;;13016390;22;20255;-76
2022/10/03 11:17:57;;;;;;;7.68;2.65;;;;;22.30;102268.00;;;;13043707;22;20156;-76
2022/10/03 11:22:58;;;;;;;9.40;2.45;;;;;21.50;102263.00;;;;12986609;22;20518;-76
2022/10/03 11:28:37;;;;;;;10.02;2.10;;;;;20.50;102259.00;;;;13090109;22;20205;-76
2022/10/03 11:34:21;;;;;;;11.10;3.08;;;;;19.90;102260.00;;;;13063055;22;20171;-75
2022/10/03 11:39:33;;;;;;;5.72;2.15;;;;;19.30;102257.00;;;;13038184;22;20190;-75
2022/10/03 11:44:50;;;;;;;11.73;2.28;;;;;18.90;102253.00;;;;13043129;22;20168;-75
2022/10/03 11:50:10;;;;;;;7.80;2.60;;;;;18.70;102252.00;;;;13088903;22;20163;-75
2022/10/03 11:55:32;;;;;;;7.45;2.28;;;;;19.30;102252.00;;;;13068566;22;20410;-76
2022/10/03 12:00:37;;;;;;;14.02;2.25;;;;;19.50;102242.00;;;;13061603;22;20210;-76
2022/10/03 12:11:42;;;;;;;11.68;2.50;;;;;20.80;102227.00;;;;13114953;22;20675;-76
2022/10/03 12:17:17;;;;;;;9.65;2.28;;;;;20.90;102232.00;;;;13088742;22;20175;-76
2022/10/03 12:22:50;;;;;;;8.13;2.03;;;;;20.70;102224.00;;;;13015191;22;20369;-75
2022/10/03 12:27:58;;;;;;;8.32;1.90;;;;;22.10;102223.00;;;;13113850;22;20668;-76
2022/10/03 12:33:31;;;;;;;10.20;1.67;;;;;23.30;102229.00;;;;13015507;22;20660;-76
2022/10/03 12:38:56;;;;;;;8.07;1.95;;;;;24.10;102212.00;;;;13030424;22;20264;-77
2022/10/03 12:44:18;;;;;;;6.55;1.67;;;;;24.80;102208.00;;;;13063476;22;20714;-76
2022/10/03 12:49:47;;;;;;;4.50;1.63;;;;;23.50;102210.00;;;;13013521;22;20191;-76
2022/10/03 12:55:13;;;;;;;5.45;1.75;;;;;23.10;102199.00;;;;13065571;22;20189;-76
2022/10/03 13:00:23;;;;;;;5.47;1.88;;;;;24.10;102199.00;;;;13029876;22;20625;-77
2022/10/03 13:05:40;;;;;;;8.43;1.77;;;;;24.50;102198.00;;;;13060767;22;20159;-76
2022/10/03 13:10:49;;;;;;;9.15;2.10;;;;;24.50;102188.00;;;;13073063;22;20202;-76
2022/10/03 13:16:38;;;;;;;7.13;2.45;;;;;24.20;102184.00;;;;13035083;22;20163;-77
2022/10/03 13:22:06;;;;;;;4.20;1.85;;;;;23.50;102184.00;;;;12926454;22;20275;-76
2022/10/03 13:27:22;;;;;;;9.60;2.45;;;;;22.20;102189.00;;;;13030377;22;20258;-76
2022/10/03 13:32:46;;;;;;;4.10;1.60;;;;;21.70;102179.00;;;;13060500;22;20159;-76
2022/10/03 13:38:17;;;;;;;6.32;1.42;;;;;21.30;102182.00;;;;13081848;22;21260;-75
2022/10/03 13:43:25;;;;;;;4.47;1.58;;;;;21.00;102180.00;;;;13113951;22;20745;-75
2022/10/03 13:48:27;;;;;;;6.28;1.20;;;;;21.00;102170.00;;;;13037803;22;20175;-75
2022/10/03 13:53:49;;;;;;;3.17;1.33;;;;;21.00;102166.00;;;;13085446;22;20434;-75
2022/10/03 13:59:26;;;;;;;7.35;1.73;;;;;20.80;102158.00;;;;13057488;22;20529;-75
2022/10/03 14:04:45;;;;;;;6.82;1.58;;;;;20.60;102149.00;;;;12955365;22;20236;-75
2022/10/03 14:10:15;;;;;;;7.55;1.75;;;;;20.40;102139.00;;;;13036600;22;20195;-75
2022/10/03 14:15:38;;;;;;;5.10;1.27;;;;;20.20;102135.00;;;;13086182;22;20356;-75
2022/10/03 14:20:51;;;;;;;4.30;1.63;;;;;20.10;102125.00;;;;13037061;22;20196;-76
2022/10/03 14:26:11;;;;;;;9.35;2.33;;;;;19.90;102120.00;;;;13086666;22;20409;-76
2022/10/03 14:31:35;;;;;;;13.07;2.50;;;;;19.70;102114.00;;;;13040287;22;20683;-75
2022/10/03 14:36:43;;;;;;;16.33;3.65;;;;;19.70;102110.00;;;;13088424;22;20826;-76
2022/10/03 14:41:59;;;;;;;6.43;1.92;;;;;19.70;102099.00;;;;13090697;22;20184;-77
2022/10/03 14:47:08;;;;;;;9.40;2.10;;;;;19.30;102095.00;;;;13009001;22;20191;-76
2022/10/03 14:52:20;;;;;;;6.13;1.85;;;;;19.10;102087.00;;;;13032012;22;20175;-75
2022/10/03 14:57:24;;;;;;;6.78;2.00;;;;;18.90;102077.00;;;;13039921;22;20258;-75
2022/10/03 15:02:37;;;;;;;9.25;2.10;;;;;18.90;102086.00;;;;13087145;22;20240;-75
2022/10/03 15:07:41;;;;;;;7.15;2.75;;;;;18.90;102078.00;;;;13038261;22;20206;-76
2022/10/03 15:12:47;;;;;;;4.53;2.35;;;;;18.80;102082.00;;;;13022940;22;20249;-75
2022/10/03 15:17:52;;;;;;;10.38;3.17;;;;;18.50;102086.00;;;;13015795;22;20175;-75
2022/10/03 15:22:57;;;;;;;7.53;3.15;;;;;18.20;102076.00;;;;13013637;22;20199;-75
2022/10/03 15:28:13;;;;;;;10.85;2.75;;;;;17.90;102069.00;;;;13087076;22;20167;-75
2022/10/03 15:33:18;;;;;;;7.13;2.60;;;;;17.50;102067.00;;;;13062931;22;20711;-75
2022/10/03 15:38:26;;;;;;;14.43;3.35;;;;;17.20;102062.00;;;;13062965;22;20996;-75
2022/10/03 15:43:33;;;;;;;9.27;3.40;;;;;16.90;102062.00;;;;13014707;22;20203;-75
2022/10/03 15:48:34;;;;;;;8.45;2.83;;;;;16.80;102064.00;;;;13053595;22;20228;-75
2022/10/03 15:53:36;;;;;;;7.65;2.90;;;;;16.50;102071.00;;;;13078284;22;20223;-75
2022/10/03 15:58:45;;;;;;;7.35;3.20;;;;;16.30;102053.00;;;;13068542;22;20179;-75
2022/10/03 16:03:54;;;;;;;5.70;2.72;;;;;16.20;102039.00;;;;13087958;22;20188;-75
2022/10/03 16:09:00;;;;;;;9.55;3.50;;;;;16.10;102047.00;;;;13087104;22;20638;-76
2022/10/03 16:14:08;;;;;;;7.22;2.97;;;;;15.90;102035.00;;;;13012443;22;20264;-75
2022/10/03 16:19:18;;;;;;;6.70;3.13;;;;;15.80;102048.00;;;;13009497;22;20171;-75
2022/10/03 16:24:35;;;;;;;7.22;3.22;;;;;15.70;102031.00;;;;13066195;22;20167;-75
2022/10/03 16:29:42;;;;;;;7.15;3.00;;;;;15.50;102034.00;;;;13039707;22;20170;-74
2022/10/03 16:34:45;;;;;;;9.38;3.05;;;;;15.30;102021.00;;;;13089107;22;20164;-75
2022/10/03 16:40:05;;;;;;;9.30;3.10;;;;;15.20;102022.00;;;;13059302;22;20273;-74
2022/10/03 16:45:17;;;;;;;6.50;3.30;;;;;15.10;102031.00;;;;13003385;22;20164;-75
2022/10/03 16:50:24;;;;;;;6.68;3.00;;;;;14.90;102023.00;;;;13058965;22;20167;-75
2022/10/03 16:55:33;;;;;;;9.88;3.72;;;;;14.70;102024.00;;;;13085778;22;20171;-73
2022/10/03 17:00:48;;;;;;;6.13;2.88;;;;;14.50;102019.00;;;;13058645;22;20187;-74
2022/10/03 17:06:07;;;;;;;11.10;3.80;;;;;14.30;102024.00;;;;13076626;22;20236;-73
2022/10/03 17:11:16;;;;;;;7.73;3.27;;;;;14.10;102025.00;;;;13083605;22;20191;-73
2022/10/03 17:16:32;;;;;;;7.93;3.47;;;;;13.80;102018.00;;;;13061629;22;20163;-75
2022/10/03 17:21:39;;;;;;;10.40;3.30;;;;;13.70;102002.00;;;;13020355;22;20187;-75
2022/10/03 17:26:51;;;;;;;6.17;4.30;;;;;13.50;101995.00;;;;13078740;22;20163;-74
2022/10/03 17:32:08;;;;;;;6.03;4.03;;;;;13.40;101994.00;;;;13010356;22;20255;-74
2022/10/03 17:37:21;;;;;;;10.57;4.93;;;;;13.10;101990.00;;;;13057474;22;20236;-74
2022/10/03 17:42:34;;;;;;;7.20;5.30;;;;;12.90;101982.00;;;;13079569;22;20561;-74
2022/10/03 17:47:56;;;;;;;11.90;4.93;;;;;12.70;101979.00;;;;13052984;22;20345;-74
2022/10/03 17:52:59;;;;;;;9.47;5.07;;;;;12.50;101983.00;;;;13032907;22;20806;-74
2022/10/03 17:58:21;;;;;;;9.30;5.37;;;;;12.40;101982.00;;;;13035033;22;20175;-74
2022/10/03 18:03:47;;;;;;;9.53;5.97;;;;;12.30;101975.00;;;;13083159;22;20183;-74
2022/10/03 18:08:50;;;;;;;14.27;6.40;;;;;12.10;101980.00;;;;13034336;22;20802;-74
2022/10/03 18:14:15;;;;;;;9.20;5.50;;;;;12.00;101973.00;;;;13083972;22;20160;-74
2022/10/03 18:20:01;;;;;;;9.97;5.27;;;;;11.90;101962.00;;;;13057638;22;20159;-74
2022/10/03 18:30:52;;;;;;;13.20;6.10;;;;;11.70;101953.00;;;;13034761;22;20190;-72
2022/10/03 18:35:55;;;;;;;25.70;15.77;;;;;11.70;101946.00;;;;13013928;22;20176;-73
2022/10/03 18:41:01;;;;;;;17.83;10.07;;;;;11.70;101947.00;;;;13066603;22;20222;-73
2022/10/03 18:46:18;;;;;;;21.07;11.53;;;;;11.60;101951.00;;;;13061732;22;20167;-73
2022/10/03 18:51:44;;;;;;;13.73;8.83;;;;;11.50;101967.00;;;;13040230;22;20167;-73
2022/10/03 18:56:58;;;;;;;15.20;7.90;;;;;11.40;101954.00;;;;13040366;22;20711;-73
2022/10/03 19:02:02;;;;;;;14.47;6.80;;;;;11.30;101960.00;;;;13087001;22;20183;-73
2022/10/03 19:07:16;;;;;;;11.30;7.20;;;;;11.10;101944.00;;;;13087266;22;20160;-73
2022/10/03 19:12:20;;;;;;;12.23;6.93;;;;;10.90;101949.00;;;;13035029;22;20191;-73
2022/10/03 19:17:30;;;;;;;16.63;9.90;;;;;10.90;101942.00;;;;13062578;22;20176;-73
2022/10/03 19:22:37;;;;;;;28.80;25.80;;;;;10.90;101944.00;;;;13040837;22;20195;-73
2022/10/03 19:27:46;;;;;;;14.20;10.00;;;;;10.80;101938.00;;;;13041785;22;20168;-73
2022/10/03 19:33:11;;;;;;;15.63;9.47;;;;;10.70;101936.00;;;;13061755;22;20221;-73
2022/10/03 19:38:17;;;;;;;20.10;12.53;;;;;10.70;101932.00;;;;13034682;22;20486;-73
2022/10/03 19:43:36;;;;;;;24.60;12.13;;;;;10.60;101924.00;;;;13084099;22;20928;-73
2022/10/03 19:49:01;;;;;;;20.87;11.23;;;;;10.60;101922.00;;;;13035495;22;20276;-73
2022/10/03 19:54:11;;;;;;;17.90;10.87;;;;;10.60;101927.00;;;;13015122;22;20248;-73
2022/10/03 19:59:16;;;;;;;13.37;9.27;;;;;10.70;101928.00;;;;13015662;22;20178;-73
2022/10/03 20:04:32;;;;;;;16.80;9.73;;;;;10.80;101926.00;;;;13038893;22;20171;-73
2022/10/03 20:09:59;;;;;;;16.60;9.80;;;;;10.80;101911.00;;;;13042144;22;20236;-73
2022/10/03 20:15:04;;;;;;;16.37;10.23;;;;;10.80;101909.00;;;;13040806;22;20203;-73
2022/10/03 20:20:15;;;;;;;16.40;10.93;;;;;10.80;101911.00;;;;13086758;22;20179;-73
2022/10/03 20:25:38;;;;;;;18.97;9.23;;;;;10.80;101908.00;;;;13088165;22;20163;-73
2022/10/03 20:30:45;;;;;;;16.90;9.17;;;;;10.80;101903.00;;;;13041937;22;20261;-73
2022/10/03 20:35:49;;;;;;;16.47;10.23;;;;;10.70;101908.00;;;;13014813;22;20611;-73
2022/10/03 20:41:14;;;;;;;14.60;8.80;;;;;10.70;101905.00;;;;13038809;22;20819;-73
2022/10/03 20:46:20;;;;;;;15.83;8.60;;;;;10.60;101913.00;;;;13035886;22;20159;-73
2022/10/03 20:51:22;;;;;;;11.90;8.17;;;;;10.50;101923.00;;;;13015270;22;20176;-73
2022/10/03 20:56:34;;;;;;;14.57;8.40;;;;;10.50;101920.00;;;;13041287;22;20172;-73
2022/10/03 21:01:37;;;;;;;13.97;8.73;;;;;10.40;101922.00;;;;13061592;22;20741;-73
2022/10/03 21:07:16;;;;;;;14.33;8.63;;;;;10.30;101917.00;;;;13016606;22;20172;-73
2022/10/03 21:12:23;;;;;;;16.27;9.03;;;;;10.20;101917.00;;;;13061899;22;20515;-72
2022/10/03 21:17:26;;;;;;;18.03;11.03;;;;;10.10;101911.00;;;;13040454;22;20182;-73
2022/10/03 21:22:28;;;;;;;19.40;10.67;;;;;10.10;101909.00;;;;13041396;22;20191;-73
2022/10/03 21:27:32;;;;;;;18.30;10.43;;;;;10.00;101908.00;;;;13039771;22;20266;-73
2022/10/03 21:32:57;;;;;;;20.23;11.10;;;;;10.00;101920.00;;;;13014304;22;20187;-73
2022/10/03 21:38:17;;;;;;;18.47;10.13;;;;;10.00;101907.00;;;;13045973;22;20217;-73
2022/10/03 21:43:42;;;;;;;17.03;10.90;;;;;9.90;101912.00;;;;13068791;22;20847;-74
2022/10/03 21:49:01;;;;;;;18.50;12.40;;;;;9.90;101901.00;;;;13021412;22;20186;-73
2022/10/03 21:54:35;;;;;;;19.53;13.00;;;;;9.90;101895.00;;;;13046097;22;20167;-73
2022/10/03 22:00:12;;;;;;;22.33;13.07;;;;;10.00;101890.00;;;;13092157;22;20179;-73
2022/10/03 22:05:39;;;;;;;21.60;12.47;;;;;10.00;101879.00;;;;13068370;22;20178;-73
2022/10/03 22:10:58;;;;;;;22.53;13.50;;;;;9.90;101889.00;;;;13044525;22;20232;-73
2022/10/03 22:16:11;;;;;;;19.03;13.60;;;;;9.90;101877.00;;;;13044678;22;20171;-73
2022/10/03 22:21:24;;;;;;;22.63;14.93;;;;;9.80;101862.00;;;;13069603;22;20622;-74
2022/10/03 22:26:55;;;;;;;22.93;14.90;;;;;9.90;101856.00;;;;13048552;22;20213;-73
2022/10/03 22:32:33;;;;;;;21.77;13.40;;;;;10.00;101853.00;;;;13020645;22;20167;-73
2022/10/03 22:37:36;;;;;;;17.50;11.13;;;;;10.00;101839.00;;;;13023385;22;20634;-73
2022/10/03 22:42:44;;;;;;;17.50;11.27;;;;;10.00;101827.00;;;;13021099;22;20199;-73
2022/10/03 22:47:54;;;;;;;11.53;8.40;;;;;10.10;101828.00;;;;13065922;22;20167;-73
2022/10/03 22:52:57;;;;;;;15.40;8.70;;;;;10.20;101820.00;;;;13044004;22;20179;-73
2022/10/03 22:58:01;;;;;;;14.67;8.60;;;;;10.20;101818.00;;;;13042716;22;20171;-73
2022/10/03 23:03:08;;;;;;;12.87;8.60;;;;;10.20;101807.00;;;;13041970;22;20222;-74
2022/10/03 23:08:23;;;;;;;15.17;8.03;;;;;10.20;101804.00;;;;13091070;22;20232;-74
2022/10/03 23:13:38;;;;;;;11.33;8.63;;;;;10.20;101823.00;;;;13064352;22;20198;-74
2022/10/03 23:19:01;;;;;;;11.30;7.70;;;;;10.10;101827.00;;;;13041612;22;20817;-74
2022/10/03 23:24:12;;;;;;;18.50;7.30;;;;;10.10;101841.00;;;;13068431;22;20202;-73
2022/10/03 23:29:16;;;;;;;16.73;7.83;;;;;10.00;101831.00;;;;13042294;22;20172;-74
2022/10/03 23:34:38;;;;;;;9.20;7.13;;;;;10.00;101833.00;;;;13063940;22;20163;-73
2022/10/03 23:40:05;;;;;;;8.67;6.53;;;;;10.00;101831.00;;;;13043020;22;20199;-73
2022/10/03 23:45:09;;;;;;;11.03;7.47;;;;;10.00;101844.00;;;;13068645;22;20179;-74
2022/10/03 23:50:18;;;;;;;12.20;7.27;;;;;10.00;101842.00;;;;13038991;22;20164;-74
2022/10/03 23:55:23;;;;;;;11.53;7.50;;;;;10.00;101847.00;;;;13042854;22;20174;-73
